sensor_id;sensor_type;location;lat;lon;timestamp;pressure;altitude;pressure_sealevel;temperature;humidity
21520;BME280;10921;53.614;9.882;2023-05-03T00:00:46;102585.81;;;4.05;76.64
21520;BME280;10921;53.614;9.882;2023-05-03T00:03:12;102597.13;;;4.08;76.29
21520;BME280;10921;53.614;9.882;2023-05-03T00:05:39;102598.91;;;4.08;76.37
21520;BME280;10921;53.614;9.882;2023-05-03T00:08:06;102532.69;;;3.66;76.20
21520;BME280;10921;53.614;9.882;2023-05-03T00:10:33;102596.44;;;4.03;76.36
21520;BME280;10921;53.614;9.882;2023-05-03T00:12:59;102580.94;;;3.94;76.53
21520;BME280;10921;53.614;9.882;2023-05-03T00:15:26;102594.75;;;4.01;76.65
21520;BME280;10921;53.614;9.882;2023-05-03T00:17:52;102594.75;;;4.01;76.96
21520;BME280;10921;53.614;9.882;2023-05-03T00:20:19;102590.53;;;3.97;76.67
21520;BME280;10921;53.614;9.882;2023-05-03T00:22:45;102591.44;;;3.96;76.61
21520;BME280;10921;53.614;9.882;2023-05-03T00:25:12;102586.28;;;3.93;76.72
21520;BME280;10921;53.614;9.882;2023-05-03T00:27:40;102587.19;;;3.92;76.34
21520;BME280;10921;53.614;9.882;2023-05-03T00:30:07;102558.97;;;3.69;76.66
21520;BME280;10921;53.614;9.882;2023-05-03T00:32:35;102597.75;;;3.92;76.52
21520;BME280;10921;53.614;9.882;2023-05-03T00:35:02;102598.66;;;3.91;76.24
21520;BME280;10921;53.614;9.882;2023-05-03T00:37:28;102601.41;;;3.87;76.47
21520;BME280;10921;53.614;9.882;2023-05-03T00:39:56;102607.66;;;3.85;76.24
21520;BME280;10921;53.614;9.882;2023-05-03T00:42:22;102588.66;;;3.75;76.64
21520;BME280;10921;53.614;9.882;2023-05-03T00:44:49;102593.94;;;3.75;76.49
21520;BME280;10921;53.614;9.882;2023-05-03T00:47:16;102576.72;;;3.65;76.84
21520;BME280;10921;53.614;9.882;2023-05-03T00:49:43;102595.72;;;3.75;77.06
21520;BME280;10921;53.614;9.882;2023-05-03T00:52:10;102573.25;;;3.63;77.01
21520;BME280;10921;53.614;9.882;2023-05-03T00:54:36;102605.41;;;3.74;77.19
21520;BME280;10921;53.614;9.882;2023-05-03T00:57:03;102588.91;;;3.68;77.39
21520;BME280;10921;53.614;9.882;2023-05-03T00:59:31;102586.22;;;3.69;77.43
21520;BME280;10921;53.614;9.882;2023-05-03T01:01:57;102594.19;;;3.68;76.88
21520;BME280;10921;53.614;9.882;2023-05-03T01:04:24;102552.84;;;3.43;77.21
21520;BME280;10921;53.614;9.882;2023-05-03T01:09:48;102595.31;;;3.62;77.52
21520;BME280;10921;53.614;9.882;2023-05-03T01:15:19;102598.03;;;3.59;78.07
21520;BME280;10921;53.614;9.882;2023-05-03T01:17:58;102604.09;;;3.63;76.49
21520;BME280;10921;53.614;9.882;2023-05-03T01:20:30;102569.03;;;3.34;76.85
21520;BME280;10921;53.614;9.882;2023-05-03T01:25:25;102604.38;;;3.53;77.51
21520;BME280;10921;53.614;9.882;2023-05-03T01:27:54;102595.19;;;3.40;78.15
21520;BME280;10921;53.614;9.882;2023-05-03T01:30:25;102591.53;;;3.44;78.21
21520;BME280;10921;53.614;9.882;2023-05-03T01:35:59;102611.81;;;3.67;79.54
21520;BME280;10921;53.614;9.882;2023-05-03T01:38:29;102614.25;;;3.73;79.31
21520;BME280;10921;53.614;9.882;2023-05-03T01:41:01;102580.53;;;3.57;79.49
21520;BME280;10921;53.614;9.882;2023-05-03T01:43:29;102610.25;;;3.86;79.69
21520;BME280;10921;53.614;9.882;2023-05-03T01:45:59;102603.91;;;3.92;79.55
21520;BME280;10921;53.614;9.882;2023-05-03T01:48:25;102614.16;;;4.00;80.02
21520;BME280;10921;53.614;9.882;2023-05-03T01:50:52;102580.34;;;3.86;79.89
21520;BME280;10921;53.614;9.882;2023-05-03T01:53:18;102604.16;;;4.09;80.24
21520;BME280;10921;53.614;9.882;2023-05-03T01:55:45;102612.47;;;4.22;80.41
21520;BME280;10921;53.614;9.882;2023-05-03T01:58:11;102588.03;;;4.15;80.50
21520;BME280;10921;53.614;9.882;2023-05-03T02:00:38;102616.09;;;4.43;80.86
21520;BME280;10921;53.614;9.882;2023-05-03T02:03:04;102618.38;;;4.52;81.03
21520;BME280;10921;53.614;9.882;2023-05-03T02:05:31;102609.25;;;4.59;81.14
21520;BME280;10921;53.614;9.882;2023-05-03T02:07:57;102620.28;;;4.70;80.80
21520;BME280;10921;53.614;9.882;2023-05-03T02:10:24;102615.50;;;4.80;81.02
21520;BME280;10921;53.614;9.882;2023-05-03T02:12:50;102614.44;;;4.84;80.64
21520;BME280;10921;53.614;9.882;2023-05-03T02:15:17;102577.88;;;4.73;80.78
21520;BME280;10921;53.614;9.882;2023-05-03T02:17:46;102621.66;;;5.02;80.60
21520;BME280;10921;53.614;9.882;2023-05-03T02:20:15;102628.50;;;5.06;80.11
21520;BME280;10921;53.614;9.882;2023-05-03T02:22:41;102636.16;;;5.14;79.95
21520;BME280;10921;53.614;9.882;2023-05-03T02:25:08;102649.22;;;5.18;79.88
21520;BME280;10921;53.614;9.882;2023-05-03T02:27:34;102621.03;;;5.17;79.56
21520;BME280;10921;53.614;9.882;2023-05-03T02:30:01;102629.75;;;5.19;79.16
21520;BME280;10921;53.614;9.882;2023-05-03T02:32:28;102633.78;;;5.28;79.29
21520;BME280;10921;53.614;9.882;2023-05-03T02:34:54;102603.47;;;5.15;78.90
21520;BME280;10921;53.614;9.882;2023-05-03T02:37:21;102639.50;;;5.39;79.01
21520;BME280;10921;53.614;9.882;2023-05-03T02:39:47;102625.59;;;5.34;79.00
21520;BME280;10921;53.614;9.882;2023-05-03T02:42:14;102630.69;;;5.39;79.04
21520;BME280;10921;53.614;9.882;2023-05-03T02:44:41;102639.78;;;5.53;78.93
21520;BME280;10921;53.614;9.882;2023-05-03T02:47:08;102631.25;;;5.47;78.61
21520;BME280;10921;53.614;9.882;2023-05-03T02:49:34;102636.00;;;5.59;78.75
21520;BME280;10921;53.614;9.882;2023-05-03T02:52:01;102638.31;;;5.66;78.74
21520;BME280;10921;53.614;9.882;2023-05-03T02:54:27;102628.56;;;5.67;78.72
21520;BME280;10921;53.614;9.882;2023-05-03T02:56:54;102637.00;;;5.77;78.58
21520;BME280;10921;53.614;9.882;2023-05-03T02:59:20;102631.47;;;5.81;78.41
21520;BME280;10921;53.614;9.882;2023-05-03T03:01:48;102636.66;;;5.84;78.30
21520;BME280;10921;53.614;9.882;2023-05-03T03:04:14;102646.16;;;5.90;78.22
21520;BME280;10921;53.614;9.882;2023-05-03T03:06:41;102647.75;;;5.94;78.32
21520;BME280;10921;53.614;9.882;2023-05-03T03:09:07;102628.47;;;5.90;78.26
21520;BME280;10921;53.614;9.882;2023-05-03T03:11:33;102618.63;;;5.94;78.02
21520;BME280;10921;53.614;9.882;2023-05-03T03:14:00;102631.25;;;6.08;77.82
21520;BME280;10921;53.614;9.882;2023-05-03T03:16:26;102632.91;;;6.10;77.91
21520;BME280;10921;53.614;9.882;2023-05-03T03:18:53;102615.78;;;5.97;77.91
21520;BME280;10921;53.614;9.882;2023-05-03T03:21:20;102634.38;;;6.16;77.52
21520;BME280;10921;53.614;9.882;2023-05-03T03:23:46;102638.63;;;6.20;77.48
21520;BME280;10921;53.614;9.882;2023-05-03T03:26:13;102579.09;;;5.88;77.57
21520;BME280;10921;53.614;9.882;2023-05-03T03:28:39;102603.94;;;6.06;77.88
21520;BME280;10921;53.614;9.882;2023-05-03T03:31:06;102634.69;;;6.28;77.94
21520;BME280;10921;53.614;9.882;2023-05-03T03:33:33;102618.28;;;6.20;77.96
21520;BME280;10921;53.614;9.882;2023-05-03T03:35:59;102639.84;;;6.31;77.88
21520;BME280;10921;53.614;9.882;2023-05-03T03:38:26;102627.38;;;6.33;78.03
21520;BME280;10921;53.614;9.882;2023-05-03T03:40:52;102632.34;;;6.41;77.99
21520;BME280;10921;53.614;9.882;2023-05-03T03:43:19;102635.56;;;6.48;77.99
21520;BME280;10921;53.614;9.882;2023-05-03T03:45:46;102610.41;;;6.38;77.95
21520;BME280;10921;53.614;9.882;2023-05-03T03:48:12;102609.50;;;6.39;77.55
21520;BME280;10921;53.614;9.882;2023-05-03T03:50:39;102611.22;;;6.40;77.44
21520;BME280;10921;53.614;9.882;2023-05-03T03:53:05;102611.75;;;6.46;77.40
21520;BME280;10921;53.614;9.882;2023-05-03T03:55:32;102635.06;;;6.58;77.21
21520;BME280;10921;53.614;9.882;2023-05-03T03:57:58;102631.53;;;6.58;77.38
21520;BME280;10921;53.614;9.882;2023-05-03T04:00:25;102625.47;;;6.56;77.34
21520;BME280;10921;53.614;9.882;2023-05-03T04:02:51;102628.88;;;6.58;77.38
21520;BME280;10921;53.614;9.882;2023-05-03T04:05:18;102620.25;;;6.54;77.58
21520;BME280;10921;53.614;9.882;2023-05-03T04:07:45;102607.38;;;6.45;77.73
21520;BME280;10921;53.614;9.882;2023-05-03T04:10:11;102629.53;;;6.63;77.95
21520;BME280;10921;53.614;9.882;2023-05-03T04:12:37;102638.16;;;6.68;78.04
21520;BME280;10921;53.614;9.882;2023-05-03T04:15:05;102635.25;;;6.72;78.17
21520;BME280;10921;53.614;9.882;2023-05-03T04:17:31;102595.66;;;6.51;78.17
21520;BME280;10921;53.614;9.882;2023-05-03T04:20:01;102588.34;;;6.56;78.45
21520;BME280;10921;53.614;9.882;2023-05-03T04:22:32;102632.66;;;6.90;78.35
21520;BME280;10921;53.614;9.882;2023-05-03T04:24:59;102628.06;;;6.93;78.23
21520;BME280;10921;53.614;9.882;2023-05-03T04:27:28;102630.38;;;7.01;78.06
21520;BME280;10921;53.614;9.882;2023-05-03T04:29:55;102597.38;;;6.88;78.03
21520;BME280;10921;53.614;9.882;2023-05-03T04:32:22;102624.72;;;7.07;78.01
21520;BME280;10921;53.614;9.882;2023-05-03T04:34:49;102636.47;;;7.20;77.79
21520;BME280;10921;53.614;9.882;2023-05-03T04:37:21;102635.59;;;7.20;77.96
21520;BME280;10921;53.614;9.882;2023-05-03T04:39:48;102622.66;;;7.14;77.82
21520;BME280;10921;53.614;9.882;2023-05-03T04:42:15;102651.56;;;7.37;77.48
21520;BME280;10921;53.614;9.882;2023-05-03T04:44:41;102654.56;;;7.48;77.50
21520;BME280;10921;53.614;9.882;2023-05-03T04:47:08;102620.63;;;7.36;77.19
21520;BME280;10921;53.614;9.882;2023-05-03T04:49:34;102649.63;;;7.58;77.17
21520;BME280;10921;53.614;9.882;2023-05-03T04:52:01;102660.03;;;7.62;76.88
21520;BME280;10921;53.614;9.882;2023-05-03T04:54:28;102642.72;;;7.54;76.68
21520;BME280;10921;53.614;9.882;2023-05-03T04:56:54;102662.75;;;7.78;76.18
21520;BME280;10921;53.614;9.882;2023-05-03T04:59:21;102632.59;;;7.62;76.08
21520;BME280;10921;53.614;9.882;2023-05-03T05:01:48;102645.31;;;7.72;75.89
21520;BME280;10921;53.614;9.882;2023-05-03T05:04:15;102678.06;;;7.90;75.88
21520;BME280;10921;53.614;9.882;2023-05-03T05:06:42;102671.03;;;7.89;75.86
21520;BME280;10921;53.614;9.882;2023-05-03T05:09:21;102687.91;;;8.05;76.38
21520;BME280;10921;53.614;9.882;2023-05-03T05:11:48;102675.38;;;8.07;75.60
21520;BME280;10921;53.614;9.882;2023-05-03T05:14:15;102646.44;;;8.01;75.36
21520;BME280;10921;53.614;9.882;2023-05-03T05:16:41;102647.66;;;8.11;75.43
21520;BME280;10921;53.614;9.882;2023-05-03T05:19:08;102651.50;;;8.23;75.14
21520;BME280;10921;53.614;9.882;2023-05-03T05:21:34;102681.00;;;8.52;75.27
21520;BME280;10921;53.614;9.882;2023-05-03T05:24:01;102686.34;;;8.67;74.98
21520;BME280;10921;53.614;9.882;2023-05-03T05:26:27;102637.91;;;8.45;74.23
21520;BME280;10921;53.614;9.882;2023-05-03T05:28:54;102685.75;;;8.94;74.04
21520;BME280;10921;53.614;9.882;2023-05-03T05:31:21;102693.03;;;9.06;73.34
21520;BME280;10921;53.614;9.882;2023-05-03T05:33:47;102682.63;;;9.17;72.83
21520;BME280;10921;53.614;9.882;2023-05-03T05:36:14;102696.91;;;9.32;72.97
21520;BME280;10921;53.614;9.882;2023-05-03T05:38:40;102711.31;;;9.43;72.20
21520;BME280;10921;53.614;9.882;2023-05-03T05:41:07;102674.00;;;9.43;71.58
21520;BME280;10921;53.614;9.882;2023-05-03T05:43:34;102688.72;;;9.65;71.71
21520;BME280;10921;53.614;9.882;2023-05-03T05:46:00;102699.34;;;9.80;70.74
21520;BME280;10921;53.614;9.882;2023-05-03T05:48:26;102674.00;;;9.73;69.54
21520;BME280;10921;53.614;9.882;2023-05-03T05:50:53;102705.88;;;10.05;69.44
21520;BME280;10921;53.614;9.882;2023-05-03T05:53:19;102687.13;;;10.06;68.50
21520;BME280;10921;53.614;9.882;2023-05-03T05:55:46;102715.16;;;10.28;67.50
21520;BME280;10921;53.614;9.882;2023-05-03T05:58:12;102702.88;;;10.39;66.66
21520;BME280;10921;53.614;9.882;2023-05-03T06:00:39;102696.31;;;10.45;66.24
21520;BME280;10921;53.614;9.882;2023-05-03T06:03:06;102706.69;;;10.64;65.21
21520;BME280;10921;53.614;9.882;2023-05-03T06:05:32;102689.53;;;10.68;64.40
21520;BME280;10921;53.614;9.882;2023-05-03T06:07:59;102708.66;;;10.88;63.95
21520;BME280;10921;53.614;9.882;2023-05-03T06:10:25;102684.63;;;10.88;63.30
21520;BME280;10921;53.614;9.882;2023-05-03T06:12:52;102714.16;;;11.14;63.30
21520;BME280;10921;53.614;9.882;2023-05-03T06:15:18;102712.59;;;11.24;62.39
21520;BME280;10921;53.614;9.882;2023-05-03T06:17:45;102719.59;;;11.39;62.05
21520;BME280;10921;53.614;9.882;2023-05-03T06:20:12;102688.47;;;11.38;61.46
21520;BME280;10921;53.614;9.882;2023-05-03T06:22:39;102681.88;;;11.44;60.43
21520;BME280;10921;53.614;9.882;2023-05-03T06:25:05;102715.44;;;11.75;59.82
21520;BME280;10921;53.614;9.882;2023-05-03T06:27:35;102716.34;;;11.88;59.40
21520;BME280;10921;53.614;9.882;2023-05-03T06:30:04;102721.59;;;12.02;59.04
21520;BME280;10921;53.614;9.882;2023-05-03T06:32:31;102714.75;;;12.11;58.33
21520;BME280;10921;53.614;9.882;2023-05-03T06:34:58;102722.56;;;12.26;56.96
21520;BME280;10921;53.614;9.882;2023-05-03T06:37:25;102728.47;;;12.31;56.35
21520;BME280;10921;53.614;9.882;2023-05-03T06:39:51;102726.19;;;12.38;55.73
21520;BME280;10921;53.614;9.882;2023-05-03T06:42:18;102732.75;;;12.47;55.82
21520;BME280;10921;53.614;9.882;2023-05-03T06:44:44;102722.34;;;12.55;54.23
21520;BME280;10921;53.614;9.882;2023-05-03T06:47:11;102681.34;;;12.42;54.25
21520;BME280;10921;53.614;9.882;2023-05-03T06:49:37;102726.28;;;12.75;53.31
21520;BME280;10921;53.614;9.882;2023-05-03T06:52:04;102708.72;;;12.71;52.34
21520;BME280;10921;53.614;9.882;2023-05-03T06:54:30;102732.16;;;12.92;52.02
21520;BME280;10921;53.614;9.882;2023-05-03T06:56:57;102689.00;;;12.72;51.30
21520;BME280;10921;53.614;9.882;2023-05-03T06:59:24;102718.53;;;12.95;50.88
21520;BME280;10921;53.614;9.882;2023-05-03T07:01:52;102704.16;;;12.96;51.82
21520;BME280;10921;53.614;9.882;2023-05-03T07:04:18;102699.69;;;12.84;50.87
21520;BME280;10921;53.614;9.882;2023-05-03T07:06:45;102714.69;;;12.87;51.29
21520;BME280;10921;53.614;9.882;2023-05-03T07:09:21;102732.53;;;12.99;50.43
21520;BME280;10921;53.614;9.882;2023-05-03T07:12:07;102714.88;;;12.96;50.39
21520;BME280;10921;53.614;9.882;2023-05-03T07:14:33;102740.56;;;13.12;50.55
21520;BME280;10921;53.614;9.882;2023-05-03T07:17:00;102741.66;;;13.09;49.24
21520;BME280;10921;53.614;9.882;2023-05-03T07:19:26;102702.81;;;12.78;48.99
21520;BME280;10921;53.614;9.882;2023-05-03T07:21:52;102742.13;;;12.90;48.16
21520;BME280;10921;53.614;9.882;2023-05-03T07:24:19;102666.66;;;12.47;49.16
21520;BME280;10921;53.614;9.882;2023-05-03T07:26:45;102739.56;;;12.76;49.41
21520;BME280;10921;53.614;9.882;2023-05-03T07:29:14;102724.88;;;12.69;49.49
21520;BME280;10921;53.614;9.882;2023-05-03T07:31:40;102741.41;;;12.76;49.54
21520;BME280;10921;53.614;9.882;2023-05-03T07:34:07;102711.00;;;12.64;48.32
21520;BME280;10921;53.614;9.882;2023-05-03T07:36:34;102680.59;;;12.52;48.09
21520;BME280;10921;53.614;9.882;2023-05-03T07:39:01;102717.28;;;12.76;48.35
21520;BME280;10921;53.614;9.882;2023-05-03T07:41:30;102742.97;;;12.91;47.55
21520;BME280;10921;53.614;9.882;2023-05-03T07:43:56;102738.38;;;12.93;47.06
21520;BME280;10921;53.614;9.882;2023-05-03T07:46:23;102730.84;;;12.98;48.55
21520;BME280;10921;53.614;9.882;2023-05-03T07:48:50;102728.34;;;13.08;47.54
21520;BME280;10921;53.614;9.882;2023-05-03T07:51:16;102728.00;;;13.25;46.48
21520;BME280;10921;53.614;9.882;2023-05-03T07:53:43;102737.38;;;13.43;46.18
21520;BME280;10921;53.614;9.882;2023-05-03T07:56:09;102733.69;;;13.68;46.70
21520;BME280;10921;53.614;9.882;2023-05-03T07:58:36;102733.75;;;13.90;46.12
21520;BME280;10921;53.614;9.882;2023-05-03T08:01:06;102721.72;;;14.07;45.37
21520;BME280;10921;53.614;9.882;2023-05-03T08:03:32;102718.34;;;14.16;45.32
21520;BME280;10921;53.614;9.882;2023-05-03T08:05:59;102687.69;;;14.07;44.77
21520;BME280;10921;53.614;9.882;2023-05-03T08:08:26;102732.53;;;14.29;44.73
21520;BME280;10921;53.614;9.882;2023-05-03T08:10:53;102709.44;;;14.16;44.90
21520;BME280;10921;53.614;9.882;2023-05-03T08:13:20;102741.03;;;14.23;44.79
21520;BME280;10921;53.614;9.882;2023-05-03T08:15:48;102732.97;;;14.12;44.81
21520;BME280;10921;53.614;9.882;2023-05-03T08:18:16;102736.00;;;14.07;44.95
21520;BME280;10921;53.614;9.882;2023-05-03T08:20:43;102729.25;;;13.91;44.95
21520;BME280;10921;53.614;9.882;2023-05-03T08:23:10;102703.34;;;13.67;45.20
21520;BME280;10921;53.614;9.882;2023-05-03T08:25:36;102708.59;;;13.69;45.39
21520;BME280;10921;53.614;9.882;2023-05-03T08:28:03;102706.97;;;13.66;45.56
21520;BME280;10921;53.614;9.882;2023-05-03T08:30:30;102739.72;;;13.83;45.12
21520;BME280;10921;53.614;9.882;2023-05-03T08:32:56;102737.28;;;13.80;44.97
21520;BME280;10921;53.614;9.882;2023-05-03T08:35:23;102745.31;;;13.80;44.60
21520;BME280;10921;53.614;9.882;2023-05-03T08:37:50;102724.47;;;13.72;44.66
21520;BME280;10921;53.614;9.882;2023-05-03T08:40:20;102742.56;;;13.92;44.53
21520;BME280;10921;53.614;9.882;2023-05-03T08:42:47;102747.69;;;13.95;44.04
21520;BME280;10921;53.614;9.882;2023-05-03T08:45:15;102742.97;;;13.99;43.52
21520;BME280;10921;53.614;9.882;2023-05-03T08:47:43;102710.94;;;13.85;43.12
21520;BME280;10921;53.614;9.882;2023-05-03T08:50:12;102748.56;;;14.07;43.38
21520;BME280;10921;53.614;9.882;2023-05-03T08:52:40;102709.88;;;13.98;42.78
21520;BME280;10921;53.614;9.882;2023-05-03T08:55:08;102710.63;;;14.00;41.95
21520;BME280;10921;53.614;9.882;2023-05-03T08:57:36;102744.13;;;14.30;42.01
21520;BME280;10921;53.614;9.882;2023-05-03T09:00:04;102741.22;;;14.33;41.78
21520;BME280;10921;53.614;9.882;2023-05-03T09:02:38;102733.31;;;14.42;42.94
21520;BME280;10921;53.614;9.882;2023-05-03T09:07:59;102755.53;;;14.67;41.83
21520;BME280;10921;53.614;9.882;2023-05-03T09:10:27;102739.28;;;14.57;42.07
21520;BME280;10921;53.614;9.882;2023-05-03T09:12:58;102735.03;;;14.66;42.07
21520;BME280;10921;53.614;9.882;2023-05-03T09:15:29;102753.56;;;14.69;41.63
21520;BME280;10921;53.614;9.882;2023-05-03T09:18:13;102756.16;;;14.70;41.95
21520;BME280;10921;53.614;9.882;2023-05-03T09:20:42;102759.47;;;14.63;41.92
21520;BME280;10921;53.614;9.882;2023-05-03T09:23:17;102751.41;;;14.63;41.03
21520;BME280;10921;53.614;9.882;2023-05-03T09:25:49;102750.03;;;14.57;41.08
21520;BME280;10921;53.614;9.882;2023-05-03T09:28:18;102743.69;;;14.58;41.09
21520;BME280;10921;53.614;9.882;2023-05-03T09:30:46;102761.16;;;14.64;40.89
21520;BME280;10921;53.614;9.882;2023-05-03T09:33:13;102762.53;;;14.81;41.27
21520;BME280;10921;53.614;9.882;2023-05-03T09:36:01;102753.22;;;14.96;41.28
21520;BME280;10921;53.614;9.882;2023-05-03T09:38:34;102747.69;;;15.08;40.70
21520;BME280;10921;53.614;9.882;2023-05-03T09:41:02;102745.13;;;15.07;39.86
21520;BME280;10921;53.614;9.882;2023-05-03T09:43:31;102756.34;;;15.23;39.69
21520;BME280;10921;53.614;9.882;2023-05-03T09:46:11;102743.59;;;15.36;40.48
21520;BME280;10921;53.614;9.882;2023-05-03T09:48:39;102709.16;;;15.19;39.50
21520;BME280;10921;53.614;9.882;2023-05-03T09:51:07;102743.44;;;15.49;40.03
21520;BME280;10921;53.614;9.882;2023-05-03T09:53:35;102738.00;;;15.71;40.26
21520;BME280;10921;53.614;9.882;2023-05-03T09:56:04;102746.09;;;15.92;39.40
21520;BME280;10921;53.614;9.882;2023-05-03T09:58:31;102743.63;;;16.00;38.47
21520;BME280;10921;53.614;9.882;2023-05-03T10:01:00;102749.97;;;16.20;39.05
21520;BME280;10921;53.614;9.882;2023-05-03T10:03:33;102741.84;;;16.31;39.41
21520;BME280;10921;53.614;9.882;2023-05-03T10:06:02;102747.66;;;16.36;39.06
21520;BME280;10921;53.614;9.882;2023-05-03T10:08:34;102749.88;;;16.73;39.94
21520;BME280;10921;53.614;9.882;2023-05-03T10:11:03;102708.06;;;16.27;37.68
21520;BME280;10921;53.614;9.882;2023-05-03T10:13:30;102749.59;;;16.55;38.18
21520;BME280;10921;53.614;9.882;2023-05-03T10:16:09;102747.69;;;16.67;38.72
21520;BME280;10921;53.614;9.882;2023-05-03T10:18:47;102728.56;;;16.70;38.48
21520;BME280;10921;53.614;9.882;2023-05-03T10:21:46;102728.16;;;16.74;38.94
21520;BME280;10921;53.614;9.882;2023-05-03T10:24:16;102725.59;;;16.52;37.39
21520;BME280;10921;53.614;9.882;2023-05-03T10:26:46;102721.69;;;16.35;38.42
21520;BME280;10921;53.614;9.882;2023-05-03T10:29:44;102735.88;;;16.37;38.81
21520;BME280;10921;53.614;9.882;2023-05-03T10:35:05;102723.44;;;16.15;39.00
21520;BME280;10921;53.614;9.882;2023-05-03T10:37:32;102719.63;;;15.97;38.27
21520;BME280;10921;53.614;9.882;2023-05-03T10:40:08;102732.63;;;15.92;38.63
21520;BME280;10921;53.614;9.882;2023-05-03T10:42:42;102706.94;;;15.67;38.39
21520;BME280;10921;53.614;9.882;2023-05-03T10:45:19;102726.66;;;15.89;39.02
21520;BME280;10921;53.614;9.882;2023-05-03T10:50:39;102729.34;;;16.30;37.06
21520;BME280;10921;53.614;9.882;2023-05-03T10:53:06;102698.88;;;16.39;36.69
21520;BME280;10921;53.614;9.882;2023-05-03T10:55:33;102703.03;;;16.74;37.34
21520;BME280;10921;53.614;9.882;2023-05-03T10:58:00;102719.91;;;17.16;36.52
21520;BME280;10921;53.614;9.882;2023-05-03T11:00:40;102714.25;;;17.48;36.12
21520;BME280;10921;53.614;9.882;2023-05-03T11:03:18;102717.97;;;17.95;36.00
21520;BME280;10921;53.614;9.882;2023-05-03T11:05:50;102715.72;;;18.37;35.10
21520;BME280;10921;53.614;9.882;2023-05-03T11:08:19;102707.94;;;18.71;33.86
21520;BME280;10921;53.614;9.882;2023-05-03T11:10:49;102706.78;;;19.01;33.62
21520;BME280;10921;53.614;9.882;2023-05-03T11:13:22;102664.66;;;18.98;33.12
21520;BME280;10921;53.614;9.882;2023-05-03T11:15:48;102706.44;;;19.31;32.54
21520;BME280;10921;53.614;9.882;2023-05-03T11:18:15;102664.28;;;19.29;32.72
21520;BME280;10921;53.614;9.882;2023-05-03T11:20:42;102693.84;;;19.76;32.13
21520;BME280;10921;53.614;9.882;2023-05-03T11:23:11;102710.06;;;19.93;32.48
21520;BME280;10921;53.614;9.882;2023-05-03T11:25:37;102704.16;;;20.16;32.25
21520;BME280;10921;53.614;9.882;2023-05-03T11:28:04;102711.06;;;19.92;31.49
21520;BME280;10921;53.614;9.882;2023-05-03T11:30:35;102716.97;;;19.88;32.41
21520;BME280;10921;53.614;9.882;2023-05-03T11:33:03;102708.59;;;19.46;33.11
21520;BME280;10921;53.614;9.882;2023-05-03T11:35:29;102732.47;;;19.15;32.60
21520;BME280;10921;53.614;9.882;2023-05-03T11:37:57;102721.25;;;18.82;33.13
21520;BME280;10921;53.614;9.882;2023-05-03T11:40:24;102699.22;;;18.40;33.29
21520;BME280;10921;53.614;9.882;2023-05-03T11:42:56;102711.50;;;18.25;33.97
21520;BME280;10921;53.614;9.882;2023-05-03T11:45:50;102667.06;;;17.90;34.68
21520;BME280;10921;53.614;9.882;2023-05-03T11:48:17;102707.44;;;18.02;34.78
21520;BME280;10921;53.614;9.882;2023-05-03T11:53:14;102708.28;;;18.12;34.00
21520;BME280;10921;53.614;9.882;2023-05-03T11:55:45;102703.78;;;18.40;33.96
21520;BME280;10921;53.614;9.882;2023-05-03T11:58:17;102700.16;;;18.49;33.66
21520;BME280;10921;53.614;9.882;2023-05-03T12:00:47;102698.19;;;18.88;33.10
21520;BME280;10921;53.614;9.882;2023-05-03T12:03:21;102668.69;;;19.12;33.21
21520;BME280;10921;53.614;9.882;2023-05-03T12:05:52;102684.88;;;19.57;32.74
21520;BME280;10921;53.614;9.882;2023-05-03T12:08:20;102688.34;;;19.85;32.43
21520;BME280;10921;53.614;9.882;2023-05-03T12:10:50;102690.34;;;20.35;32.98
21520;BME280;10921;53.614;9.882;2023-05-03T12:13:54;102693.19;;;19.99;33.52
21520;BME280;10921;53.614;9.882;2023-05-03T12:16:22;102691.44;;;19.73;32.83
21520;BME280;10921;53.614;9.882;2023-05-03T12:18:52;102696.63;;;19.48;33.37
21520;BME280;10921;53.614;9.882;2023-05-03T12:21:24;102675.78;;;19.13;32.98
21520;BME280;10921;53.614;9.882;2023-05-03T12:23:54;102690.56;;;19.19;34.34
21520;BME280;10921;53.614;9.882;2023-05-03T12:26:22;102683.34;;;19.10;33.84
21520;BME280;10921;53.614;9.882;2023-05-03T12:28:51;102692.22;;;18.84;34.19
21520;BME280;10921;53.614;9.882;2023-05-03T12:31:21;102689.00;;;18.98;34.38
21520;BME280;10921;53.614;9.882;2023-05-03T12:33:48;102682.22;;;18.57;34.51
21520;BME280;10921;53.614;9.882;2023-05-03T12:36:36;102652.91;;;18.25;34.59
21520;BME280;10921;53.614;9.882;2023-05-03T12:39:03;102690.31;;;18.30;34.47
21520;BME280;10921;53.614;9.882;2023-05-03T12:41:35;102629.69;;;17.96;34.83
21520;BME280;10921;53.614;9.882;2023-05-03T12:44:05;102632.50;;;18.04;34.67
21520;BME280;10921;53.614;9.882;2023-05-03T12:46:36;102664.09;;;18.40;34.87
21520;BME280;10921;53.614;9.882;2023-05-03T12:49:04;102619.63;;;18.25;34.45
21520;BME280;10921;53.614;9.882;2023-05-03T12:51:34;102668.03;;;18.83;35.22
21520;BME280;10921;53.614;9.882;2023-05-03T12:54:01;102659.63;;;19.04;33.39
21520;BME280;10921;53.614;9.882;2023-05-03T12:56:29;102674.25;;;19.28;32.93
21520;BME280;10921;53.614;9.882;2023-05-03T12:58:58;102660.66;;;19.56;32.77
21520;BME280;10921;53.614;9.882;2023-05-03T13:01:45;102661.72;;;19.81;31.93
21520;BME280;10921;53.614;9.882;2023-05-03T13:04:31;102650.69;;;20.00;31.36
21520;BME280;10921;53.614;9.882;2023-05-03T13:07:18;102648.69;;;20.10;30.63
21520;BME280;10921;53.614;9.882;2023-05-03T13:09:54;102605.66;;;20.07;30.90
21520;BME280;10921;53.614;9.882;2023-05-03T13:12:24;102650.78;;;20.50;30.44
21520;BME280;10921;53.614;9.882;2023-05-03T13:14:52;102637.06;;;20.44;30.28
21520;BME280;10921;53.614;9.882;2023-05-03T13:17:20;102651.97;;;20.48;31.74
21520;BME280;10921;53.614;9.882;2023-05-03T13:19:49;102608.06;;;20.18;31.56
21520;BME280;10921;53.614;9.882;2023-05-03T13:22:16;102643.75;;;20.31;31.58
21520;BME280;10921;53.614;9.882;2023-05-03T13:24:45;102644.91;;;20.29;31.93